Time;durP1;ratioP1;P1;durP2;ratioP2;P2;SDS_P1;SDS_P2;PMS_P1;PMS_P2;Temp;Humidity;BMP_temperature;BMP_pressure;BME280_temperature;BME280_humidity;BME280_pressure;Samples;Min_cycle;Max_cycle;Signal;HPM_P1;HPM_P2
2023/02/11 00:00:33;;;;;;;;;;;;;;;;;;4975589;28;20455;-75
2023/02/11 00:02:59;;;;;;;;;;;;;;;;;;4974266;28;19964;-76
2023/02/11 00:05:26;;;;;;;;;;;;;;;;;;4971130;28;19921;-75
2023/02/11 00:07:52;;;;;;;;;;;;;;;;;;4962012;28;20029;-75
2023/02/11 00:10:18;;;;;;;;;;;;;;;;;;4967128;28;20412;-75
2023/02/11 00:12:44;;;;;;;;;;;;;;;;;;4970121;28;19976;-75
2023/02/11 00:15:11;;;;;;;;;;;;;;;;;;4969519;28;19917;-76
2023/02/11 00:17:37;;;;;;;;;;;;;;;;;;4959195;28;19922;-76
2023/02/11 00:20:03;;;;;;;;;;;;;;;;;;4945155;28;19922;-74
2023/02/11 00:22:29;;;;;;;;;;;;;;;;;;4951343;28;19969;-76
2023/02/11 00:24:56;;;;;;;;;;;;;;;;;;4952493;28;19926;-77
2023/02/11 00:27:22;;;;;;;;;;;;;;;;;;4975757;28;20010;-76
2023/02/11 00:29:50;;;;;;;;;;;;;;;;;;4950301;28;20186;-75
2023/02/11 00:32:16;;;;;;;;;;;;;;;;;;4954315;28;19922;-75
2023/02/11 00:34:42;;;;;;;;;;;;;;;;;;4951191;28;19973;-75
2023/02/11 00:37:10;;;;;;;;;;;;;;;;;;4948498;28;19922;-75
2023/02/11 00:39:38;;;;;;;;;;;;;;;;;;4967248;28;19919;-75
2023/02/11 00:42:04;;;;;;;;;;;;;;;;;;4955963;28;19918;-75
2023/02/11 00:44:30;;;;;;;;;;;;;;;;;;4960106;28;19930;-74
2023/02/11 00:46:56;;;;;;;;;;;;;;;;;;4965955;28;19929;-75
2023/02/11 00:49:24;;;;;;;;;;;;;;;;;;4968607;28;20001;-75
2023/02/11 00:51:50;;;;;;;;;;;;;;;;;;4965852;28;20405;-75
2023/02/11 00:54:16;;;;;;;;;;;;;;;;;;4951860;28;19998;-75
2023/02/11 00:56:42;;;;;;;;;;;;;;;;;;4938406;28;19993;-75
2023/02/11 00:59:09;;;;;;;;;;;;;;;;;;4959295;28;19922;-76
2023/02/11 01:01:35;;;;;;;;;;;;;;;;;;4941205;28;19989;-75
2023/02/11 01:04:01;;;;;;;;;;;;;;;;;;4965303;28;19937;-75
2023/02/11 01:06:27;;;;;;;;;;;;;;;;;;4946598;28;21971;-75
2023/02/11 01:08:53;;;;;;;;;;;;;;;;;;4971303;28;19973;-75
2023/02/11 01:11:20;;;;;;;;;;;;;;;;;;4950042;28;19922;-75
2023/02/11 01:13:46;;;;;;;;;;;;;;;;;;4967962;28;20649;-75
2023/02/11 01:16:12;;;;;;;;;;;;;;;;;;4950248;28;20124;-75
2023/02/11 01:18:43;;;;;;;;;;;;;;;;;;4980798;28;19949;-76
2023/02/11 01:21:09;;;;;;;;;;;;;;;;;;4963507;28;19982;-76
2023/02/11 01:23:35;;;;;;;;;;;;;;;;;;4968590;28;19922;-75
2023/02/11 01:26:01;;;;;;;;;;;;;;;;;;4959472;28;19921;-75
2023/02/11 01:28:27;;;;;;;;;;;;;;;;;;4962333;28;19949;-76
2023/02/11 01:30:54;;;;;;;;;;;;;;;;;;4962808;28;19954;-75
2023/02/11 01:33:20;;;;;;;;;;;;;;;;;;4971631;28;19967;-76
2023/02/11 01:35:46;;;;;;;;;;;;;;;;;;4969302;28;19930;-76
2023/02/11 01:38:12;;;;;;;;;;;;;;;;;;4984043;28;19918;-75
2023/02/11 01:40:38;;;;;;;;;;;;;;;;;;4967358;28;19925;-75
2023/02/11 01:43:05;;;;;;;;;;;;;;;;;;4983067;28;19925;-75
2023/02/11 01:45:31;;;;;;;;;;;;;;;;;;4968071;28;19918;-75
2023/02/11 01:47:57;;;;;;;;;;;;;;;;;;4969746;28;20382;-75
2023/02/11 01:50:23;;;;;;;;;;;;;;;;;;4965532;28;20584;-76
2023/02/11 01:52:50;;;;;;;;;;;;;;;;;;4990790;28;19921;-75
2023/02/11 01:58:01;;;;;;;;;;;;;;;;;;4978907;28;19918;-75
2023/02/11 02:00:27;;;;;;;;;;;;;;;;;;4992455;28;19922;-75
2023/02/11 02:02:53;;;;;;;;;;;;;;;;;;4980152;28;19968;-76
2023/02/11 02:05:20;;;;;;;;;;;;;;;;;;4978880;28;20590;-75
2023/02/11 02:07:46;;;;;;;;;;;;;;;;;;4984491;28;19914;-75
2023/02/11 02:10:12;;;;;;;;;;;;;;;;;;4967314;28;19924;-75
2023/02/11 02:12:38;;;;;;;;;;;;;;;;;;4961521;28;19960;-75
2023/02/11 02:15:05;;;;;;;;;;;;;;;;;;4983526;28;20326;-75
2023/02/11 02:17:31;;;;;;;;;;;;;;;;;;4966795;28;19922;-75
2023/02/11 02:19:57;;;;;;;;;;;;;;;;;;4982853;28;19918;-75
2023/02/11 02:22:23;;;;;;;;;;;;;;;;;;4961748;28;19980;-75
2023/02/11 02:24:50;;;;;;;;;;;;;;;;;;4990194;28;20444;-75
2023/02/11 02:27:16;;;;;;;;;;;;;;;;;;4972026;28;19918;-76
2023/02/11 02:29:42;;;;;;;;;;;;;;;;;;4967586;28;19977;-75
2023/02/11 02:32:09;;;;;;;;;;;;;;;;;;4974303;28;19977;-75
2023/02/11 02:34:35;;;;;;;;;;;;;;;;;;4969519;28;19918;-75
2023/02/11 02:37:01;;;;;;;;;;;;;;;;;;4981947;28;20519;-76
2023/02/11 02:39:27;;;;;;;;;;;;;;;;;;4968515;28;20002;-73
2023/02/11 02:41:54;;;;;;;;;;;;;;;;;;4968978;28;19921;-76
2023/02/11 02:44:20;;;;;;;;;;;;;;;;;;4962370;28;19977;-74
2023/02/11 02:46:46;;;;;;;;;;;;;;;;;;4962577;28;19922;-74
2023/02/11 02:49:12;;;;;;;;;;;;;;;;;;4971332;28;19932;-76
2023/02/11 02:51:38;;;;;;;;;;;;;;;;;;4969241;28;19956;-75
2023/02/11 02:54:05;;;;;;;;;;;;;;;;;;4987096;28;19918;-75
2023/02/11 02:56:31;;;;;;;;;;;;;;;;;;4970212;28;19918;-75
2023/02/11 02:58:58;;;;;;;;;;;;;;;;;;4970253;28;19918;-75
2023/02/11 03:01:24;;;;;;;;;;;;;;;;;;4978732;28;19962;-74
2023/02/11 03:03:50;;;;;;;;;;;;;;;;;;4959682;28;19922;-74
2023/02/11 03:06:16;;;;;;;;;;;;;;;;;;4978681;28;19922;-75
2023/02/11 03:08:43;;;;;;;;;;;;;;;;;;4972821;28;19929;-75
2023/02/11 03:11:09;;;;;;;;;;;;;;;;;;4968771;28;19917;-75
2023/02/11 03:13:35;;;;;;;;;;;;;;;;;;4966593;28;19918;-74
2023/02/11 03:16:01;;;;;;;;;;;;;;;;;;4975032;28;19918;-75
2023/02/11 03:18:28;;;;;;;;;;;;;;;;;;4961129;28;19930;-74
2023/02/11 03:20:54;;;;;;;;;;;;;;;;;;4955058;28;20325;-74
2023/02/11 03:23:20;;;;;;;;;;;;;;;;;;4961675;28;19918;-75
2023/02/11 03:25:46;;;;;;;;;;;;;;;;;;4962360;28;19918;-77
2023/02/11 03:28:12;;;;;;;;;;;;;;;;;;4963192;28;19924;-74
2023/02/11 03:30:39;;;;;;;;;;;;;;;;;;4970029;28;19918;-73
2023/02/11 03:33:05;;;;;;;;;;;;;;;;;;4941293;28;19922;-74
2023/02/11 03:35:31;;;;;;;;;;;;;;;;;;4953082;28;19914;-74
2023/02/11 03:37:57;;;;;;;;;;;;;;;;;;4952724;28;19919;-75
2023/02/11 03:40:23;;;;;;;;;;;;;;;;;;4953625;28;19929;-75
2023/02/11 03:42:50;;;;;;;;;;;;;;;;;;4953853;28;20382;-75
2023/02/11 03:45:16;;;;;;;;;;;;;;;;;;4952425;28;20389;-75
2023/02/11 03:47:42;;;;;;;;;;;;;;;;;;4948097;28;20323;-75
2023/02/11 03:50:08;;;;;;;;;;;;;;;;;;4954031;28;19976;-74
2023/02/11 03:52:35;;;;;;;;;;;;;;;;;;4947422;28;19926;-73
2023/02/11 03:55:01;;;;;;;;;;;;;;;;;;4949967;28;19915;-76
2023/02/11 03:57:27;;;;;;;;;;;;;;;;;;4973716;28;19925;-74
2023/02/11 03:59:53;;;;;;;;;;;;;;;;;;4958507;28;20007;-74
2023/02/11 04:02:20;;;;;;;;;;;;;;;;;;4958643;28;19914;-74
2023/02/11 04:04:46;;;;;;;;;;;;;;;;;;4953091;28;19933;-74
2023/02/11 04:07:12;;;;;;;;;;;;;;;;;;4959930;28;19969;-77
2023/02/11 04:09:38;;;;;;;;;;;;;;;;;;4954175;28;21084;-74
2023/02/11 04:12:05;;;;;;;;;;;;;;;;;;4941786;29;19982;-75
2023/02/11 04:14:31;;;;;;;;;;;;;;;;;;4977745;28;19949;-75
2023/02/11 04:16:57;;;;;;;;;;;;;;;;;;4944584;28;19957;-75
2023/02/11 04:19:23;;;;;;;;;;;;;;;;;;4967724;28;19948;-75
2023/02/11 04:21:50;;;;;;;;;;;;;;;;;;4967241;28;19922;-75
2023/02/11 04:24:16;;;;;;;;;;;;;;;;;;4960011;28;19949;-75
2023/02/11 04:26:42;;;;;;;;;;;;;;;;;;4971510;28;19922;-75
2023/02/11 04:29:08;;;;;;;;;;;;;;;;;;4981665;28;19933;-75
2023/02/11 04:31:34;;;;;;;;;;;;;;;;;;4964972;28;19958;-75
2023/02/11 04:34:01;;;;;;;;;;;;;;;;;;4982590;28;20374;-75
2023/02/11 04:36:27;;;;;;;;;;;;;;;;;;4966366;28;19965;-74
2023/02/11 04:38:53;;;;;;;;;;;;;;;;;;4967074;28;19918;-75
2023/02/11 04:41:19;;;;;;;;;;;;;;;;;;4970681;28;19922;-77
2023/02/11 04:43:45;;;;;;;;;;;;;;;;;;4969625;28;19953;-76
2023/02/11 04:46:12;;;;;;;;;;;;;;;;;;4985843;28;20425;-74
2023/02/11 04:48:38;;;;;;;;;;;;;;;;;;4970610;28;19937;-75
2023/02/11 04:51:04;;;;;;;;;;;;;;;;;;4973113;28;19980;-75
2023/02/11 04:53:30;;;;;;;;;;;;;;;;;;4967614;28;19976;-74
2023/02/11 04:55:56;;;;;;;;;;;;;;;;;;4965215;28;19921;-75
2023/02/11 04:58:23;;;;;;;;;;;;;;;;;;4967181;28;19972;-75
2023/02/11 05:00:49;;;;;;;;;;;;;;;;;;4974743;28;19917;-76
2023/02/11 05:03:15;;;;;;;;;;;;;;;;;;4969840;28;19918;-75
2023/02/11 05:05:41;;;;;;;;;;;;;;;;;;4968574;28;20362;-76
2023/02/11 05:08:08;;;;;;;;;;;;;;;;;;4961287;28;19948;-75
2023/02/11 05:10:34;;;;;;;;;;;;;;;;;;4972898;28;20329;-76
2023/02/11 05:13:00;;;;;;;;;;;;;;;;;;4982483;28;19940;-74
2023/02/11 05:15:26;;;;;;;;;;;;;;;;;;4977628;28;19914;-74
2023/02/11 05:17:53;;;;;;;;;;;;;;;;;;4969669;28;19932;-75
2023/02/11 05:20:19;;;;;;;;;;;;;;;;;;4973950;28;20324;-76
2023/02/11 05:22:45;;;;;;;;;;;;;;;;;;4968123;28;20289;-75
2023/02/11 05:25:11;;;;;;;;;;;;;;;;;;4967726;28;19972;-75
2023/02/11 05:27:37;;;;;;;;;;;;;;;;;;4972385;28;20377;-75
2023/02/11 05:30:04;;;;;;;;;;;;;;;;;;4960863;28;19918;-74
2023/02/11 05:32:30;;;;;;;;;;;;;;;;;;4978960;28;20003;-75
2023/02/11 05:34:56;;;;;;;;;;;;;;;;;;4979553;28;19965;-75
2023/02/11 05:37:22;;;;;;;;;;;;;;;;;;4985053;28;19922;-74
2023/02/11 05:39:48;;;;;;;;;;;;;;;;;;4967118;28;19965;-74
2023/02/11 05:42:15;;;;;;;;;;;;;;;;;;4967933;28;19922;-73
2023/02/11 05:44:41;;;;;;;;;;;;;;;;;;4959407;28;19977;-75
2023/02/11 05:47:07;;;;;;;;;;;;;;;;;;4966604;28;20344;-75
2023/02/11 05:49:34;;;;;;;;;;;;;;;;;;4959884;28;19929;-75
2023/02/11 05:52:00;;;;;;;;;;;;;;;;;;4962313;28;19917;-75
2023/02/11 05:54:26;;;;;;;;;;;;;;;;;;4965690;28;19922;-75
2023/02/11 05:56:52;;;;;;;;;;;;;;;;;;4966171;28;19927;-74
2023/02/11 05:59:19;;;;;;;;;;;;;;;;;;4986485;28;19913;-75
2023/02/11 06:01:45;;;;;;;;;;;;;;;;;;4968744;28;19968;-74
2023/02/11 06:04:11;;;;;;;;;;;;;;;;;;4966520;28;19921;-75
2023/02/11 06:06:37;;;;;;;;;;;;;;;;;;4981143;28;19984;-75
2023/02/11 06:09:03;;;;;;;;;;;;;;;;;;4965587;28;20629;-74
2023/02/11 06:11:30;;;;;;;;;;;;;;;;;;4969022;28;20453;-74
2023/02/11 06:13:56;;;;;;;;;;;;;;;;;;4956354;28;19964;-74
2023/02/11 06:16:22;;;;;;;;;;;;;;;;;;4988691;28;19914;-75
2023/02/11 06:18:48;;;;;;;;;;;;;;;;;;4967863;28;19933;-75
2023/02/11 06:21:14;;;;;;;;;;;;;;;;;;4966001;28;19917;-75
2023/02/11 06:23:42;;;;;;;;;;;;;;;;;;4970979;28;19929;-75
2023/02/11 06:26:08;;;;;;;;;;;;;;;;;;4967390;28;19918;-75
2023/02/11 06:28:34;;;;;;;;;;;;;;;;;;4987030;28;19922;-75
2023/02/11 06:31:01;;;;;;;;;;;;;;;;;;4986189;28;19976;-75
2023/02/11 06:33:27;;;;;;;;;;;;;;;;;;4973539;28;19930;-75
2023/02/11 06:35:53;;;;;;;;;;;;;;;;;;4974528;28;19926;-75
2023/02/11 06:38:19;;;;;;;;;;;;;;;;;;4968710;28;20464;-75
2023/02/11 06:40:45;;;;;;;;;;;;;;;;;;4965548;28;19999;-74
2023/02/11 06:43:12;;;;;;;;;;;;;;;;;;4960657;28;19921;-75
2023/02/11 06:45:38;;;;;;;;;;;;;;;;;;4970956;28;19969;-75
2023/02/11 06:48:04;;;;;;;;;;;;;;;;;;4972422;28;19941;-75
2023/02/11 06:50:30;;;;;;;;;;;;;;;;;;4952133;28;19977;-75
2023/02/11 06:52:56;;;;;;;;;;;;;;;;;;4965816;28;19964;-74
2023/02/11 06:55:24;;;;;;;;;;;;;;;;;;4977568;28;20492;-75
2023/02/11 06:57:50;;;;;;;;;;;;;;;;;;4964549;28;19918;-75
2023/02/11 07:00:16;;;;;;;;;;;;;;;;;;4956296;28;19918;-74
2023/02/11 07:02:42;;;;;;;;;;;;;;;;;;4979932;28;19934;-73
2023/02/11 07:05:09;;;;;;;;;;;;;;;;;;4980793;28;19961;-75
2023/02/11 07:07:35;;;;;;;;;;;;;;;;;;4971636;28;19922;-75
2023/02/11 07:10:04;;;;;;;;;;;;;;;;;;4964128;28;20286;-74
2023/02/11 07:12:30;;;;;;;;;;;;;;;;;;4962710;28;20085;-75
2023/02/11 07:14:57;;;;;;;;;;;;;;;;;;4964148;28;20435;-75
2023/02/11 07:17:23;;;;;;;;;;;;;;;;;;4956654;28;19953;-74
2023/02/11 07:19:49;;;;;;;;;;;;;;;;;;4956622;28;20377;-74
2023/02/11 07:22:15;;;;;;;;;;;;;;;;;;4973399;28;19966;-82
2023/02/11 07:24:42;;;;;;;;;;;;;;;;;;4956316;28;20016;-73
2023/02/11 07:27:08;;;;;;;;;;;;;;;;;;4974959;28;19918;-74
2023/02/11 07:29:34;;;;;;;;;;;;;;;;;;4952024;28;19922;-73
2023/02/11 07:32:00;;;;;;;;;;;;;;;;;;4968084;28;19917;-74
2023/02/11 07:34:26;;;;;;;;;;;;;;;;;;4984172;28;19922;-74
2023/02/11 07:36:53;;;;;;;;;;;;;;;;;;4976857;28;19922;-74
2023/02/11 07:39:20;;;;;;;;;;;;;;;;;;4982398;28;19926;-73
2023/02/11 07:41:48;;;;;;;;;;;;;;;;;;4977260;28;19922;-74
2023/02/11 07:44:14;;;;;;;;;;;;;;;;;;4966968;28;20410;-74
2023/02/11 07:46:43;;;;;;;;;;;;;;;;;;4966567;28;19914;-73
2023/02/11 07:49:09;;;;;;;;;;;;;;;;;;4967139;28;19945;-74
2023/02/11 07:51:35;;;;;;;;;;;;;;;;;;4982964;28;19952;-73
2023/02/11 07:54:02;;;;;;;;;;;;;;;;;;4989844;28;20010;-74
2023/02/11 07:56:28;;;;;;;;;;;;;;;;;;4961661;28;20531;-74
2023/02/11 07:58:55;;;;;;;;;;;;;;;;;;4969339;28;19932;-74
2023/02/11 08:01:23;;;;;;;;;;;;;;;;;;4963026;28;20340;-73
2023/02/11 08:03:49;;;;;;;;;;;;;;;;;;4982266;28;19925;-74
2023/02/11 08:06:16;;;;;;;;;;;;;;;;;;4958205;28;19922;-74
2023/02/11 08:08:42;;;;;;;;;;;;;;;;;;4971527;28;19918;-73
2023/02/11 08:11:08;;;;;;;;;;;;;;;;;;4989930;28;19914;-73
2023/02/11 08:13:34;;;;;;;;;;;;;;;;;;4970376;28;20377;-73
2023/02/11 08:16:00;;;;;;;;;;;;;;;;;;4970914;28;19914;-75
2023/02/11 08:18:27;;;;;;;;;;;;;;;;;;4956826;28;19933;-75
2023/02/11 08:20:53;;;;;;;;;;;;;;;;;;4974831;28;20003;-73
2023/02/11 08:23:19;;;;;;;;;;;;;;;;;;4964346;28;19973;-73
2023/02/11 08:25:45;;;;;;;;;;;;;;;;;;4990807;28;19929;-73
2023/02/11 08:28:12;;;;;;;;;;;;;;;;;;4970361;28;19929;-73
2023/02/11 08:30:38;;;;;;;;;;;;;;;;;;4971111;28;19921;-74
2023/02/11 08:33:04;;;;;;;;;;;;;;;;;;4970716;28;19972;-73
2023/02/11 08:35:31;;;;;;;;;;;;;;;;;;4979271;28;19977;-73
2023/02/11 08:37:58;;;;;;;;;;;;;;;;;;4962860;28;19917;-73
2023/02/11 08:40:24;;;;;;;;;;;;;;;;;;4975417;28;19968;-74
2023/02/11 08:42:50;;;;;;;;;;;;;;;;;;4981367;28;20381;-73
2023/02/11 08:45:16;;;;;;;;;;;;;;;;;;4959350;28;19937;-74
2023/02/11 08:47:42;;;;;;;;;;;;;;;;;;4978247;28;19917;-74
2023/02/11 08:50:09;;;;;;;;;;;;;;;;;;4972317;28;19918;-74
2023/02/11 08:52:35;;;;;;;;;;;;;;;;;;4940855;28;19925;-74
2023/02/11 08:55:01;;;;;;;;;;;;;;;;;;4955143;28;19962;-73
2023/02/11 08:57:27;;;;;;;;;;;;;;;;;;4979014;28;20381;-74
2023/02/11 08:59:54;;;;;;;;;;;;;;;;;;4958964;28;19961;-74
2023/02/11 09:02:20;;;;;;;;;;;;;;;;;;4993037;28;19917;-74
2023/02/11 09:04:46;;;;;;;;;;;;;;;;;;4978169;28;19988;-73
2023/02/11 09:07:12;;;;;;;;;;;;;;;;;;4967903;28;19969;-73
2023/02/11 09:09:39;;;;;;;;;;;;;;;;;;4964706;28;19921;-73
2023/02/11 09:12:05;;;;;;;;;;;;;;;;;;4961844;28;19918;-73
2023/02/11 09:14:31;;;;;;;;;;;;;;;;;;4966474;28;19925;-73
2023/02/11 09:16:57;;;;;;;;;;;;;;;;;;4980492;28;19930;-73
2023/02/11 09:19:24;;;;;;;;;;;;;;;;;;4974315;28;20555;-73
2023/02/11 09:21:50;;;;;;;;;;;;;;;;;;4956113;28;20366;-73
2023/02/11 09:24:17;;;;;;;;;;;;;;;;;;4963350;28;19941;-74
2023/02/11 09:26:43;;;;;;;;;;;;;;;;;;4952138;28;19933;-73
2023/02/11 09:29:09;;;;;;;;;;;;;;;;;;4970482;28;19972;-72
2023/02/11 09:31:36;;;;;;;;;;;;;;;;;;4975646;28;20332;-73
2023/02/11 09:34:03;;;;;;;;;;;;;;;;;;4959609;28;19922;-72
2023/02/11 09:36:29;;;;;;;;;;;;;;;;;;4961459;28;20020;-73
2023/02/11 09:38:55;;;;;;;;;;;;;;;;;;4977965;28;20004;-72
2023/02/11 09:41:21;;;;;;;;;;;;;;;;;;4981824;28;19918;-72
2023/02/11 09:43:48;;;;;;;;;;;;;;;;;;4978288;28;19917;-72
2023/02/11 09:46:14;;;;;;;;;;;;;;;;;;4999572;28;19917;-72
2023/02/11 09:48:40;;;;;;;;;;;;;;;;;;4995565;28;19918;-73
2023/02/11 09:51:07;;;;;;;;;;;;;;;;;;4994934;28;19917;-72
2023/02/11 09:53:33;;;;;;;;;;;;;;;;;;4981502;28;19948;-72
2023/02/11 09:55:59;;;;;;;;;;;;;;;;;;4981940;28;19917;-72
2023/02/11 09:58:25;;;;;;;;;;;;;;;;;;4978788;28;19918;-73
2023/02/11 10:00:52;;;;;;;;;;;;;;;;;;4998895;28;19932;-73
2023/02/11 10:03:18;;;;;;;;;;;;;;;;;;4979245;28;19925;-72
2023/02/11 10:05:44;;;;;;;;;;;;;;;;;;4996500;28;19925;-72
2023/02/11 10:08:11;;;;;;;;;;;;;;;;;;4981838;28;20392;-72
2023/02/11 10:10:37;;;;;;;;;;;;;;;;;;4977201;28;19980;-72
2023/02/11 10:13:03;;;;;;;;;;;;;;;;;;4975446;28;19922;-72
2023/02/11 10:15:30;;;;;;;;;;;;;;;;;;4979289;28;19928;-72
2023/02/11 10:17:56;;;;;;;;;;;;;;;;;;4976845;28;19932;-73
2023/02/11 10:20:22;;;;;;;;;;;;;;;;;;4978546;28;19921;-72
2023/02/11 10:22:48;;;;;;;;;;;;;;;;;;4971502;28;20617;-72
2023/02/11 10:25:15;;;;;;;;;;;;;;;;;;4980122;28;19934;-72
2023/02/11 10:27:41;;;;;;;;;;;;;;;;;;4979234;28;20615;-72
2023/02/11 10:30:07;;;;;;;;;;;;;;;;;;4982655;28;19947;-72
2023/02/11 10:32:33;;;;;;;;;;;;;;;;;;4976808;28;19981;-73
2023/02/11 10:35:00;;;;;;;;;;;;;;;;;;4974936;28;20799;-72
2023/02/11 10:37:26;;;;;;;;;;;;;;;;;;4981441;28;19917;-72
2023/02/11 10:39:52;;;;;;;;;;;;;;;;;;4978241;28;19921;-71
2023/02/11 10:42:18;;;;;;;;;;;;;;;;;;4996171;28;19918;-72
2023/02/11 10:44:45;;;;;;;;;;;;;;;;;;4978379;28;19937;-72
2023/02/11 10:47:11;;;;;;;;;;;;;;;;;;4980963;28;19937;-72
2023/02/11 10:49:37;;;;;;;;;;;;;;;;;;4990444;28;19923;-72
2023/02/11 10:52:04;;;;;;;;;;;;;;;;;;4992599;28;20000;-72
2023/02/11 10:54:30;;;;;;;;;;;;;;;;;;4976027;28;20342;-71
2023/02/11 10:56:56;;;;;;;;;;;;;;;;;;4994374;28;19925;-73
2023/02/11 10:59:23;;;;;;;;;;;;;;;;;;4992486;28;19965;-73
2023/02/11 11:01:52;;;;;;;;;;;;;;;;;;4988557;28;19922;-72
2023/02/11 11:04:18;;;;;;;;;;;;;;;;;;4972367;28;20019;-73
2023/02/11 11:06:44;;;;;;;;;;;;;;;;;;4970282;28;19929;-72
2023/02/11 11:09:10;;;;;;;;;;;;;;;;;;4980078;28;19962;-72
2023/02/11 11:11:37;;;;;;;;;;;;;;;;;;4975642;28;19922;-72
2023/02/11 11:14:03;;;;;;;;;;;;;;;;;;4993766;28;19921;-73
2023/02/11 11:16:29;;;;;;;;;;;;;;;;;;4974784;28;19925;-73
2023/02/11 11:18:55;;;;;;;;;;;;;;;;;;4991143;28;19987;-73
2023/02/11 11:21:21;;;;;;;;;;;;;;;;;;4991251;28;19953;-73
2023/02/11 11:23:48;;;;;;;;;;;;;;;;;;4981648;28;19953;-73
2023/02/11 11:26:14;;;;;;;;;;;;;;;;;;4996095;28;19960;-72
2023/02/11 11:28:40;;;;;;;;;;;;;;;;;;4996791;28;19922;-73
2023/02/11 11:31:06;;;;;;;;;;;;;;;;;;4984350;28;20407;-72
2023/02/11 11:33:33;;;;;;;;;;;;;;;;;;4999739;28;19917;-72
2023/02/11 11:35:59;;;;;;;;;;;;;;;;;;4996874;28;19929;-71
2023/02/11 11:38:25;;;;;;;;;;;;;;;;;;5000384;28;19921;-72
2023/02/11 11:40:51;;;;;;;;;;;;;;;;;;4998880;28;19928;-72
2023/02/11 11:43:19;;;;;;;;;;;;;;;;;;5001276;28;20450;-72
2023/02/11 11:45:45;;;;;;;;;;;;;;;;;;4996783;28;19999;-73
2023/02/11 11:48:11;;;;;;;;;;;;;;;;;;4999458;28;21314;-72
2023/02/11 11:50:37;;;;;;;;;;;;;;;;;;5000069;28;20628;-73
2023/02/11 11:53:04;;;;;;;;;;;;;;;;;;4999994;28;19918;-72
2023/02/11 11:55:30;;;;;;;;;;;;;;;;;;4995420;28;19945;-73
2023/02/11 11:57:56;;;;;;;;;;;;;;;;;;4981608;28;20028;-72
2023/02/11 12:00:22;;;;;;;;;;;;;;;;;;4996600;28;20624;-72
2023/02/11 12:02:49;;;;;;;;;;;;;;;;;;4995413;28;19918;-73
2023/02/11 12:05:16;;;;;;;;;;;;;;;;;;4976772;28;19929;-72
2023/02/11 12:07:42;;;;;;;;;;;;;;;;;;4988894;28;19921;-72
2023/02/11 12:10:08;;;;;;;;;;;;;;;;;;4988789;28;20318;-73
2023/02/11 12:12:34;;;;;;;;;;;;;;;;;;4998843;28;19987;-72
2023/02/11 12:15:00;;;;;;;;;;;;;;;;;;4999560;28;19925;-73
2023/02/11 12:17:27;;;;;;;;;;;;;;;;;;4977896;28;20015;-73
2023/02/11 12:19:55;;;;;;;;;;;;;;;;;;5000339;28;20009;-72
2023/02/11 12:22:21;;;;;;;;;;;;;;;;;;4982275;28;20364;-72
2023/02/11 12:24:47;;;;;;;;;;;;;;;;;;4998851;28;19937;-71
2023/02/11 12:27:14;;;;;;;;;;;;;;;;;;4999596;28;19922;-72
2023/02/11 12:29:40;;;;;;;;;;;;;;;;;;4978753;28;20004;-72
2023/02/11 12:32:06;;;;;;;;;;;;;;;;;;4999080;28;19926;-73
2023/02/11 12:34:33;;;;;;;;;;;;;;;;;;4995699;28;19917;-73
2023/02/11 12:36:59;;;;;;;;;;;;;;;;;;5000387;28;19918;-72
2023/02/11 12:39:25;;;;;;;;;;;;;;;;;;4992038;28;20456;-73
2023/02/11 12:44:37;;;;;;;;;;;;;;;;;;4973386;28;19964;-72
2023/02/11 12:47:03;;;;;;;;;;;;;;;;;;4964240;28;19960;-74
2023/02/11 12:49:29;;;;;;;;;;;;;;;;;;4975389;28;19976;-75
2023/02/11 12:51:55;;;;;;;;;;;;;;;;;;4978933;28;19969;-73
2023/02/11 12:54:21;;;;;;;;;;;;;;;;;;4979094;28;19922;-73
2023/02/11 12:56:48;;;;;;;;;;;;;;;;;;4961511;28;20003;-73
2023/02/11 12:59:14;;;;;;;;;;;;;;;;;;4960967;28;19921;-73
2023/02/11 13:01:40;;;;;;;;;;;;;;;;;;4983582;28;19944;-73
2023/02/11 13:04:08;;;;;;;;;;;;;;;;;;4984988;28;19957;-74
2023/02/11 13:06:34;;;;;;;;;;;;;;;;;;4979551;28;19913;-74
2023/02/11 13:09:00;;;;;;;;;;;;;;;;;;4969277;28;19918;-74
2023/02/11 13:11:27;;;;;;;;;;;;;;;;;;4982699;28;19928;-74
2023/02/11 13:13:53;;;;;;;;;;;;;;;;;;4964881;28;20346;-74
2023/02/11 13:16:19;;;;;;;;;;;;;;;;;;4962919;28;19922;-74
2023/02/11 13:18:48;;;;;;;;;;;;;;;;;;4976938;28;19933;-74
2023/02/11 13:21:14;;;;;;;;;;;;;;;;;;4961236;28;20425;-74
2023/02/11 13:23:40;;;;;;;;;;;;;;;;;;4966603;28;19917;-75
2023/02/11 13:26:06;;;;;;;;;;;;;;;;;;4967451;28;19941;-75
2023/02/11 13:28:35;;;;;;;;;;;;;;;;;;4970026;28;19924;-74
2023/02/11 13:31:01;;;;;;;;;;;;;;;;;;4966772;28;20317;-75
2023/02/11 13:33:28;;;;;;;;;;;;;;;;;;4974213;28;19921;-74
2023/02/11 13:35:54;;;;;;;;;;;;;;;;;;4985536;28;19922;-75
2023/02/11 13:38:20;;;;;;;;;;;;;;;;;;4993410;28;20635;-75
2023/02/11 13:40:46;;;;;;;;;;;;;;;;;;4960088;28;19918;-74
2023/02/11 13:43:13;;;;;;;;;;;;;;;;;;4970644;28;19999;-74
2023/02/11 13:45:39;;;;;;;;;;;;;;;;;;4964783;28;20397;-75
2023/02/11 13:48:05;;;;;;;;;;;;;;;;;;4972302;28;19920;-74
2023/02/11 13:50:31;;;;;;;;;;;;;;;;;;4964698;28;19953;-73
2023/02/11 13:52:58;;;;;;;;;;;;;;;;;;4972626;28;19968;-74
2023/02/11 13:55:25;;;;;;;;;;;;;;;;;;4961693;28;19933;-74
2023/02/11 13:57:51;;;;;;;;;;;;;;;;;;4965805;28;19985;-74
2023/02/11 14:00:17;;;;;;;;;;;;;;;;;;4965558;28;19914;-74
2023/02/11 14:10:58;;;;;;;;;;;;;;;;;;4965681;28;21970;-74
2023/02/11 14:13:24;;;;;;;;;;;;;;;;;;4977467;28;20329;-74
2023/02/11 14:15:50;;;;;;;;;;;;;;;;;;4961903;28;19918;-74
2023/02/11 14:18:17;;;;;;;;;;;;;;;;;;4966484;28;19933;-74
2023/02/11 14:20:43;;;;;;;;;;;;;;;;;;4941561;28;19918;-75
2023/02/11 14:23:09;;;;;;;;;;;;;;;;;;4939205;28;19997;-74
2023/02/11 14:25:36;;;;;;;;;;;;;;;;;;4941729;28;19954;-75
2023/02/11 14:28:03;;;;;;;;;;;;;;;;;;4963205;28;19914;-74
2023/02/11 14:30:29;;;;;;;;;;;;;;;;;;4958653;28;19965;-74
2023/02/11 14:32:56;;;;;;;;;;;;;;;;;;4950397;28;19918;-74
2023/02/11 14:35:22;;;;;;;;;;;;;;;;;;4942163;28;19950;-74
2023/02/11 14:37:48;;;;;;;;;;;;;;;;;;4940634;28;19982;-73
2023/02/11 14:40:14;;;;;;;;;;;;;;;;;;4950687;28;19918;-74
2023/02/11 14:42:40;;;;;;;;;;;;;;;;;;4936397;28;19966;-74
2023/02/11 14:45:07;;;;;;;;;;;;;;;;;;4955185;28;19930;-74
2023/02/11 14:47:34;;;;;;;;;;;;;;;;;;4949211;28;19934;-74
2023/02/11 14:50:00;;;;;;;;;;;;;;;;;;4953633;28;20402;-74
2023/02/11 14:52:26;;;;;;;;;;;;;;;;;;4949631;28;20370;-74
2023/02/11 14:54:53;;;;;;;;;;;;;;;;;;4959582;28;19918;-75
2023/02/11 14:57:19;;;;;;;;;;;;;;;;;;4942288;28;19926;-75
2023/02/11 14:59:45;;;;;;;;;;;;;;;;;;4953989;28;19906;-75
2023/02/11 15:02:12;;;;;;;;;;;;;;;;;;4966570;28;19910;-75
2023/02/11 15:04:39;;;;;;;;;;;;;;;;;;4959288;28;20000;-75
2023/02/11 15:07:05;;;;;;;;;;;;;;;;;;4946678;28;19957;-74
2023/02/11 15:09:31;;;;;;;;;;;;;;;;;;4939886;28;19926;-75
2023/02/11 15:11:58;;;;;;;;;;;;;;;;;;4959087;28;20445;-73
2023/02/11 15:14:24;;;;;;;;;;;;;;;;;;4925891;28;19949;-73
2023/02/11 15:16:52;;;;;;;;;;;;;;;;;;4944146;28;19922;-74
2023/02/11 15:19:18;;;;;;;;;;;;;;;;;;4964365;28;19965;-73
2023/02/11 15:21:44;;;;;;;;;;;;;;;;;;4958830;28;20411;-73
2023/02/11 15:24:10;;;;;;;;;;;;;;;;;;4942952;28;19922;-73
2023/02/11 15:26:37;;;;;;;;;;;;;;;;;;4959901;28;20009;-72
2023/02/11 15:29:03;;;;;;;;;;;;;;;;;;4951754;28;20393;-73
2023/02/11 15:31:29;;;;;;;;;;;;;;;;;;4964426;28;19956;-72
2023/02/11 15:33:56;;;;;;;;;;;;;;;;;;4976471;28;19957;-73
2023/02/11 15:36:27;;;;;;;;;;;;;;;;;;4964676;28;19934;-73
2023/02/11 15:38:53;;;;;;;;;;;;;;;;;;4962485;28;19929;-73
2023/02/11 15:41:19;;;;;;;;;;;;;;;;;;4982087;28;19993;-73
2023/02/11 15:43:45;;;;;;;;;;;;;;;;;;4973400;28;19925;-72
2023/02/11 15:46:12;;;;;;;;;;;;;;;;;;4981416;28;19930;-73
2023/02/11 15:48:38;;;;;;;;;;;;;;;;;;4979688;28;19957;-72
2023/02/11 15:51:04;;;;;;;;;;;;;;;;;;4959034;28;20020;-72
2023/02/11 15:53:30;;;;;;;;;;;;;;;;;;4977760;28;19965;-73
2023/02/11 15:55:56;;;;;;;;;;;;;;;;;;4959977;28;20406;-72
2023/02/11 15:58:23;;;;;;;;;;;;;;;;;;4960560;28;19968;-73
2023/02/11 16:00:49;;;;;;;;;;;;;;;;;;4973888;28;19926;-72
2023/02/11 16:03:15;;;;;;;;;;;;;;;;;;4968016;28;19926;-72
2023/02/11 16:05:41;;;;;;;;;;;;;;;;;;4977637;28;19925;-73
2023/02/11 16:08:08;;;;;;;;;;;;;;;;;;4961911;28;20025;-71
2023/02/11 16:10:34;;;;;;;;;;;;;;;;;;4979696;28;19921;-72
2023/02/11 16:13:01;;;;;;;;;;;;;;;;;;4964288;28;19922;-73
2023/02/11 16:15:27;;;;;;;;;;;;;;;;;;4974808;28;21336;-72
2023/02/11 16:17:53;;;;;;;;;;;;;;;;;;4981425;28;19933;-72
2023/02/11 16:20:20;;;;;;;;;;;;;;;;;;4999096;28;19933;-73
2023/02/11 16:22:46;;;;;;;;;;;;;;;;;;4998189;28;19925;-73
2023/02/11 16:25:12;;;;;;;;;;;;;;;;;;4999583;28;19930;-73
2023/02/11 16:27:38;;;;;;;;;;;;;;;;;;4989382;28;19972;-72
2023/02/11 16:30:05;;;;;;;;;;;;;;;;;;4991333;28;19932;-73
2023/02/11 16:32:31;;;;;;;;;;;;;;;;;;4996174;28;19932;-73
2023/02/11 16:34:57;;;;;;;;;;;;;;;;;;4978264;28;19922;-73
2023/02/11 16:37:23;;;;;;;;;;;;;;;;;;4997853;28;19981;-73
2023/02/11 16:39:50;;;;;;;;;;;;;;;;;;4979697;28;19922;-73
2023/02/11 16:42:16;;;;;;;;;;;;;;;;;;4999086;28;20618;-73
2023/02/11 16:44:42;;;;;;;;;;;;;;;;;;4998055;28;19926;-73
2023/02/11 16:47:08;;;;;;;;;;;;;;;;;;4981938;28;19973;-73
2023/02/11 16:49:35;;;;;;;;;;;;;;;;;;4981794;28;20414;-73
2023/02/11 16:52:01;;;;;;;;;;;;;;;;;;4978118;28;19956;-73